Terminal Aerodrome Forecast
Issued by NWS

Home | Current Version | Previous Version | Graphics & Text | Print | Product List | Glossary On
Versions: 1 2 3 4 5 6 7 8 9 10 11 12 13 14 15 16 17 18
000
FTUS43 KBIS 190100 AAB
TAFDIK
TAF AMD
KDIK 190106Z 1901/1924 17006KT 3SM BR SKC
      TEMPO 1901/1904 1/4SM FZFG SCT003
     FM190400 21005KT P6SM SCT005
     FM191200 25007KT P6SM SCT100=

USA.gov is the U.S. government's official web portal to all federal, state and local government web resources and services.